createdAt,value
2023-02-17T00:02:38.165Z,98767.06
2023-02-17T00:07:42.835Z,98755.63
2023-02-17T00:12:47.327Z,98759.44
2023-02-17T00:17:53.225Z,98746.66
2023-02-17T00:22:57.453Z,98753.00
2023-02-17T00:28:01.654Z,98751.50
2023-02-17T00:33:07.630Z,98752.69
2023-02-17T00:38:12.271Z,98740.19
2023-02-17T00:43:16.660Z,98745.94
2023-02-17T00:48:22.961Z,98735.09
2023-02-17T00:53:27.591Z,98723.63
2023-02-17T00:58:32.129Z,98715.19
2023-02-17T01:03:38.109Z,98720.81
2023-02-17T01:08:42.313Z,98715.03
2023-02-17T01:13:46.772Z,98718.78
2023-02-17T01:18:53.082Z,98733.84
2023-02-17T01:24:02.069Z,98734.47
2023-02-17T01:29:08.366Z,98737.56
2023-02-17T01:34:14.139Z,98732.41
2023-02-17T01:39:19.984Z,98723.41
2023-02-17T01:44:26.441Z,98718.56
2023-02-17T01:49:37.294Z,98718.44
2023-02-17T01:54:46.735Z,98710.25
2023-02-17T01:59:51.439Z,98701.25
2023-02-17T02:04:57.205Z,98700.03
2023-02-17T02:10:01.933Z,98694.69
2023-02-17T02:15:10.795Z,98690.06
2023-02-17T02:20:53.540Z,98682.00
2023-02-17T02:26:46.747Z,98666.66
2023-02-17T02:32:08.095Z,98669.00
2023-02-17T02:37:19.162Z,98666.94
2023-02-17T02:42:25.718Z,98666.13
2023-02-17T02:47:50.302Z,98664.63
2023-02-17T02:53:25.235Z,98654.00
2023-02-17T02:58:41.799Z,98642.44
2023-02-17T03:03:52.748Z,98644.78
2023-02-17T03:09:05.588Z,98644.66
2023-02-17T03:14:12.684Z,98641.38
2023-02-17T03:19:21.681Z,98629.22
2023-02-17T03:24:28.093Z,98640.22
2023-02-17T03:29:33.242Z,98639.16
2023-02-17T03:34:37.961Z,98645.50
2023-02-17T03:39:43.759Z,98640.59
2023-02-17T03:44:48.104Z,98633.09
2023-02-17T03:49:53.085Z,98639.44
2023-02-17T03:54:59.009Z,98633.00
2023-02-17T04:00:04.623Z,98636.28
2023-02-17T04:05:17.263Z,98639.19
2023-02-17T04:10:23.312Z,98634.75
2023-02-17T04:15:27.897Z,98634.16
2023-02-17T04:20:32.156Z,98627.47
2023-02-17T04:25:39.313Z,98624.19
2023-02-17T04:30:46.891Z,98621.25
2023-02-17T04:35:51.495Z,98608.09
2023-02-17T04:40:59.534Z,98609.03
2023-02-17T04:46:04.562Z,98603.38
2023-02-17T04:51:09.404Z,98598.09
2023-02-17T04:56:15.186Z,98593.88
2023-02-17T05:01:19.748Z,98592.56
2023-02-17T05:06:24.187Z,98587.84
2023-02-17T05:11:31.711Z,98570.63
2023-02-17T05:16:36.009Z,98572.38
2023-02-17T05:21:40.452Z,98575.31
2023-02-17T05:26:46.228Z,98570.28
2023-02-17T05:31:51.161Z,98570.41
2023-02-17T05:36:55.538Z,98567.75
2023-02-17T05:42:01.201Z,98560.22
2023-02-17T05:47:06.038Z,98555.06
2023-02-17T05:52:10.801Z,98562.41
2023-02-17T05:57:16.731Z,98542.34
2023-02-17T06:02:21.213Z,98535.56
2023-02-17T06:07:25.790Z,98539.31
2023-02-17T06:12:31.574Z,98533.66
2023-02-17T06:17:35.792Z,98534.69
2023-02-17T06:22:40.424Z,98547.66
2023-02-17T06:27:46.008Z,98539.19
2023-02-17T06:32:51.056Z,98534.38
2023-02-17T06:37:55.374Z,98545.59
2023-02-17T06:43:01.140Z,98532.84
2023-02-17T06:48:05.668Z,98530.19
2023-02-17T06:53:10.049Z,98535.22
2023-02-17T06:58:16.157Z,98542.19
2023-02-17T07:03:20.512Z,98544.41
2023-02-17T07:08:24.853Z,98557.78
2023-02-17T07:13:30.590Z,98547.47
2023-02-17T07:18:35.420Z,98534.41
2023-02-17T07:23:40.046Z,98532.69
2023-02-17T07:28:45.640Z,98518.25
2023-02-17T07:33:50.210Z,98513.38
2023-02-17T07:38:54.961Z,98509.47
2023-02-17T07:44:01.174Z,98515.75
2023-02-17T07:49:05.982Z,98506.22
2023-02-17T07:54:10.236Z,98509.63
2023-02-17T07:59:16.524Z,98499.03
2023-02-17T08:04:20.985Z,98499.19
2023-02-17T08:09:42.873Z,98505.56
2023-02-17T08:14:48.538Z,98506.66
2023-02-17T08:19:52.788Z,98510.59
2023-02-17T08:24:57.267Z,98503.09
2023-02-17T08:30:03.618Z,98498.75
2023-02-17T08:35:09.298Z,98494.53
2023-02-17T08:40:13.776Z,98505.03
2023-02-17T08:45:19.862Z,98510.19
2023-02-17T08:50:24.735Z,98505.25
2023-02-17T08:55:33.494Z,98506.47
2023-02-17T09:00:46.566Z,98499.25
2023-02-17T09:05:51.481Z,98488.19
2023-02-17T09:10:55.865Z,98489.44
2023-02-17T09:16:02.854Z,98487.22
2023-02-17T09:21:09.556Z,98490.19
2023-02-17T09:26:16.375Z,98483.63
2023-02-17T09:31:25.790Z,98485.47
2023-02-17T09:36:34.093Z,98475.19
2023-02-17T09:41:44.971Z,98479.63
2023-02-17T09:47:03.351Z,98480.59
2023-02-17T09:52:15.314Z,98476.25
2023-02-17T09:57:25.702Z,98478.16
2023-02-17T10:02:41.432Z,98459.31
2023-02-17T10:07:51.132Z,98452.75
2023-02-17T10:12:59.179Z,98436.44
2023-02-17T10:18:12.651Z,98433.47
2023-02-17T10:23:20.625Z,98432.16
2023-02-17T10:28:39.048Z,98405.94
2023-02-17T10:33:55.343Z,98407.34
2023-02-17T10:39:06.195Z,98399.09
2023-02-17T10:44:17.996Z,98391.13
2023-02-17T10:49:30.847Z,98383.13
2023-02-17T10:54:39.718Z,98378.34
2023-02-17T10:59:47.032Z,98365.00
2023-02-17T11:04:55.740Z,98354.38
2023-02-17T11:10:04.271Z,98350.47
2023-02-17T11:15:19.232Z,98333.88
2023-02-17T11:20:35.766Z,98326.75
2023-02-17T11:25:40.085Z,98328.97
2023-02-17T11:30:54.104Z,98313.97
2023-02-17T11:36:00.572Z,98309.09
2023-02-17T11:41:07.670Z,98304.53
2023-02-17T11:46:29.574Z,98294.00
2023-02-17T11:51:55.022Z,98302.59
2023-02-17T11:57:18.434Z,98293.72
2023-02-17T12:02:45.565Z,98294.25
2023-02-17T12:08:07.059Z,98283.84
2023-02-17T12:13:28.880Z,98279.72
2023-02-17T12:18:49.026Z,98264.84
2023-02-17T12:24:21.582Z,98261.75
2023-02-17T12:29:41.496Z,98254.94
2023-02-17T12:34:53.414Z,98245.38
2023-02-17T12:40:04.099Z,98246.47
2023-02-17T12:45:18.563Z,98226.84
2023-02-17T12:50:28.426Z,98221.09
2023-02-17T12:55:46.950Z,98207.97
2023-02-17T13:00:56.276Z,98196.06
2023-02-17T13:06:08.003Z,98170.13
2023-02-17T13:11:29.163Z,98167.84
2023-02-17T13:16:44.938Z,98149.91
2023-02-17T13:21:56.014Z,98143.44
2023-02-17T13:27:12.902Z,98119.25
2023-02-17T13:32:29.851Z,98104.16
2023-02-17T13:37:44.050Z,98103.16
2023-02-17T13:42:51.207Z,98103.69
2023-02-17T13:48:00.587Z,98105.81
2023-02-17T13:53:23.616Z,98094.13
2023-02-17T13:58:32.310Z,98086.78
2023-02-17T14:03:44.338Z,98079.28
2023-02-17T14:08:49.060Z,98067.28
2023-02-17T14:13:57.999Z,98068.09
2023-02-17T14:19:05.684Z,98058.69
2023-02-17T14:24:29.293Z,98050.25
2023-02-17T14:29:44.413Z,98025.66
2023-02-17T14:34:48.868Z,98014.63
2023-02-17T14:39:53.400Z,98011.44
2023-02-17T14:44:59.344Z,97998.63
2023-02-17T14:50:05.200Z,97998.47
2023-02-17T14:55:17.533Z,97987.47
2023-02-17T15:00:23.565Z,97987.63
2023-02-17T15:05:28.107Z,97982.13
2023-02-17T15:10:32.540Z,97969.31
2023-02-17T15:15:39.313Z,97964.91
2023-02-17T15:20:45.683Z,97954.09
2023-02-17T15:25:50.667Z,97939.78
2023-02-17T15:30:57.638Z,97926.16
2023-02-17T15:36:02.247Z,97920.16
2023-02-17T15:41:12.497Z,97902.16
2023-02-17T15:46:21.117Z,97892.91
2023-02-17T15:51:25.707Z,97896.47
2023-02-17T15:56:43.491Z,97890.31
2023-02-17T16:01:50.824Z,97890.47
2023-02-17T16:06:55.304Z,97878.16
2023-02-17T16:12:00.578Z,97868.25
2023-02-17T16:17:12.397Z,97864.03
2023-02-17T16:22:16.678Z,97844.78
2023-02-17T16:27:21.143Z,97831.00
2023-02-17T16:32:26.797Z,97834.69
2023-02-17T16:37:31.551Z,97828.72
2023-02-17T16:42:35.843Z,97834.06
2023-02-17T16:47:41.829Z,97790.63
2023-02-17T16:52:46.894Z,97796.47
2023-02-17T16:57:52.118Z,97783.19
2023-02-17T17:02:58.534Z,97795.03
2023-02-17T17:08:02.777Z,97786.28
2023-02-17T17:13:07.519Z,97800.69
2023-02-17T17:18:22.240Z,97808.31
2023-02-17T17:23:26.610Z,97796.81
2023-02-17T17:28:30.926Z,97795.84
2023-02-17T17:33:36.705Z,97776.56
2023-02-17T17:38:40.935Z,97770.56
2023-02-17T17:43:46.991Z,97780.63
2023-02-17T17:48:53.548Z,97780.63
2023-02-17T17:53:58.870Z,97787.44
2023-02-17T17:59:04.815Z,97768.63
2023-02-17T18:04:10.484Z,97786.13
2023-02-17T18:09:31.222Z,97780.13
2023-02-17T18:14:40.064Z,97781.94
2023-02-17T18:19:47.404Z,97771.22
2023-02-17T18:24:52.001Z,97784.69
2023-02-17T18:29:56.706Z,97761.19
2023-02-17T18:35:02.919Z,97772.38
2023-02-17T18:40:12.495Z,97760.38
2023-02-17T18:45:18.296Z,97767.03
2023-02-17T18:50:24.278Z,97745.81
2023-02-17T18:55:29.482Z,97758.59
2023-02-17T19:00:34.075Z,97776.41
2023-02-17T19:05:39.863Z,97773.81
2023-02-17T19:10:45.904Z,97772.88
2023-02-17T19:15:50.370Z,97763.78
2023-02-17T19:20:57.055Z,97780.00
2023-02-17T19:26:02.915Z,97748.84
2023-02-17T19:31:09.161Z,97734.09
2023-02-17T19:36:18.608Z,97743.31
2023-02-17T19:41:23.133Z,97741.69
2023-02-17T19:46:28.320Z,97753.03
2023-02-17T19:51:34.728Z,97753.50
2023-02-17T19:56:39.992Z,97745.84
2023-02-17T20:01:44.377Z,97749.78
2023-02-17T20:06:50.100Z,97776.19
2023-02-17T20:11:54.343Z,97765.47
2023-02-17T20:17:00.662Z,97765.59
2023-02-17T20:22:06.678Z,97758.00
2023-02-17T20:27:11.509Z,97753.59
2023-02-17T20:32:16.198Z,97754.03
2023-02-17T20:37:22.370Z,97755.84
2023-02-17T20:42:26.989Z,97763.13
2023-02-17T20:47:31.454Z,97769.28
2023-02-17T20:52:37.359Z,97775.25
2023-02-17T20:57:42.259Z,97802.53
2023-02-17T21:02:47.059Z,97799.91
2023-02-17T21:07:52.493Z,97801.47
2023-02-17T21:12:56.609Z,97796.06
2023-02-17T21:18:01.005Z,97792.81
2023-02-17T21:23:06.890Z,97786.59
2023-02-17T21:28:11.312Z,97775.22
2023-02-17T21:33:15.819Z,97746.94
2023-02-17T21:38:22.796Z,97739.94
2023-02-17T21:43:44.622Z,97736.16
2023-02-17T21:48:49.075Z,97741.81
2023-02-17T21:53:55.185Z,97725.50
2023-02-17T21:58:59.734Z,97726.44
2023-02-17T22:04:04.305Z,97730.13
2023-02-17T22:09:12.908Z,97744.59
2023-02-17T22:14:19.367Z,97737.84
2023-02-17T22:19:25.750Z,97733.19
2023-02-17T22:24:31.513Z,97726.03
2023-02-17T22:29:35.671Z,97734.72
2023-02-17T22:34:40.347Z,97740.22
2023-02-17T22:39:45.884Z,97736.13
2023-02-17T22:44:50.944Z,97742.06
2023-02-17T22:49:55.373Z,97762.72
2023-02-17T22:55:01.170Z,97734.81
2023-02-17T23:00:07.860Z,97746.94
2023-02-17T23:05:12.247Z,97768.59
2023-02-17T23:10:18.022Z,97761.38
2023-02-17T23:15:39.127Z,97758.78
2023-02-17T23:20:46.885Z,97772.78
2023-02-17T23:25:56.382Z,97775.84
2023-02-17T23:31:00.787Z,97790.31
2023-02-17T23:36:05.984Z,97792.25
2023-02-17T23:41:12.591Z,97809.88
2023-02-17T23:46:17.098Z,97813.16
2023-02-17T23:51:21.272Z,97790.09
2023-02-17T23:56:32.619Z,97771.25
